Terminal Aerodrome Forecast
Issued by NWS

Home | Current Version | Previous Version | Text Only | Print | Product List | Glossary Off
Versions: 1 2 3 4 5 6 7 8 9 10 11 12 13 14 15 16

000
FTUS41 KCLE 241140
TAFFDY
TAF
KFDY 241140Z 2412/2512 04010KT P6SM OVC015
     FM241500 04010KT P6SM BKN025
     FM241700 04010KT P6SM BKN040
     FM241900 04008KT P6SM SCT050
     FM242300 06004KT P6SM SKC=

USA.gov is the U.S. government's official web portal to all federal, state and local government web resources and services.